createdAt,value
2023-03-11T07:03:27.155Z,98490.28
2023-03-11T07:06:29.839Z,98498.16
2023-03-11T07:09:33.260Z,98519.59
2023-03-11T07:12:36.216Z,98525.13
2023-03-11T07:15:38.715Z,98525.94
2023-03-11T07:18:43.147Z,98508.97
2023-03-11T07:21:45.646Z,98529.09
2023-03-11T07:24:48.447Z,98526.25
2023-03-11T07:27:50.880Z,98538.72
2023-03-11T07:30:53.547Z,98519.53
2023-03-11T07:33:58.364Z,98522.81
2023-03-11T07:37:00.996Z,98516.75
2023-03-11T07:40:03.639Z,98525.94
2023-03-11T07:43:06.445Z,98531.63
2023-03-11T07:46:09.963Z,98528.22
2023-03-11T07:49:14.103Z,98530.59
2023-03-11T07:52:16.520Z,98531.59
2023-03-11T07:55:19.263Z,98510.53
2023-03-11T07:58:21.708Z,98528.22
2023-03-11T08:01:25.610Z,98541.97
2023-03-11T08:04:29.694Z,98542.28
2023-03-11T08:07:32.226Z,98561.91
2023-03-11T08:10:36.520Z,98570.25
2023-03-11T08:13:38.725Z,98576.66
2023-03-11T08:16:41.400Z,98576.34
2023-03-11T08:19:45.125Z,98579.59
2023-03-11T08:22:57.637Z,98589.75
2023-03-11T08:26:03.218Z,98590.72
2023-03-11T08:29:05.935Z,98599.22
2023-03-11T08:32:08.402Z,98610.00
2023-03-11T08:35:12.612Z,98609.34
2023-03-11T08:38:15.092Z,98584.16
2023-03-11T08:41:17.937Z,98584.19
2023-03-11T08:44:20.401Z,98585.81
2023-03-11T08:47:23.201Z,98582.25
2023-03-11T08:50:27.219Z,98578.16
2023-03-11T08:53:30.042Z,98532.31
2023-03-11T08:56:32.447Z,98583.50
2023-03-11T08:59:36.227Z,98589.97
2023-03-11T09:02:38.622Z,98599.16
2023-03-11T09:05:42.742Z,98609.84
2023-03-11T09:08:45.698Z,98622.41
2023-03-11T09:11:48.432Z,98602.41
2023-03-11T09:14:51.043Z,98613.75
2023-03-11T09:17:54.283Z,98610.34
2023-03-11T09:20:59.247Z,98617.19
2023-03-11T09:24:01.944Z,98621.59
2023-03-11T09:27:04.491Z,98623.09
2023-03-11T09:30:08.274Z,98597.16
2023-03-11T09:33:10.721Z,98592.00
2023-03-11T09:36:15.554Z,98600.00
2023-03-11T09:39:17.942Z,98603.91
2023-03-11T09:42:22.960Z,98577.25
2023-03-11T09:45:26.449Z,98579.97
2023-03-11T09:48:30.540Z,98559.75
2023-03-11T09:51:35.957Z,98553.03
2023-03-11T09:54:40.804Z,98548.91
2023-03-11T09:57:43.196Z,98544.47
2023-03-11T10:00:45.838Z,98560.50
2023-03-11T10:03:48.517Z,98528.66
2023-03-11T10:06:53.049Z,98562.44
2023-03-11T10:09:56.956Z,98580.28
2023-03-11T10:13:02.567Z,98570.56
2023-03-11T10:16:09.471Z,98600.31
2023-03-11T10:19:15.074Z,98590.56
2023-03-11T10:22:21.040Z,98604.69
2023-03-11T10:25:25.583Z,98638.94
2023-03-11T10:28:30.431Z,98633.12
2023-03-11T10:31:35.302Z,98632.88
2023-03-11T10:34:39.591Z,98633.62
2023-03-11T10:37:49.702Z,98638.41
2023-03-11T10:40:53.940Z,98675.97
2023-03-11T10:44:00.186Z,98673.75
2023-03-11T10:47:02.972Z,98682.75
2023-03-11T10:50:06.253Z,98659.37
2023-03-11T10:53:10.833Z,98664.63
2023-03-11T10:56:26.695Z,98663.94
2023-03-11T10:59:30.471Z,98675.75
2023-03-11T11:02:33.713Z,98663.97
